createdAt,value
2018-09-02T00:00:15.507Z,0.00
2018-09-02T00:01:15.537Z,0.00
2018-09-02T00:02:15.566Z,0.00
2018-09-02T00:03:15.596Z,0.00
2018-09-02T00:04:15.621Z,0.00
2018-09-02T00:05:15.651Z,0.00
2018-09-02T00:06:15.679Z,0.00
2018-09-02T00:07:15.706Z,0.00
2018-09-02T00:08:15.734Z,0.00
2018-09-02T00:09:15.766Z,0.00
2018-09-02T00:10:15.791Z,0.00
2018-09-02T00:11:15.820Z,0.00
2018-09-02T00:12:15.847Z,0.00
2018-09-02T00:13:15.875Z,0.00
2018-09-02T00:14:15.902Z,0.00
2018-09-02T00:15:15.933Z,0.00
2018-09-02T00:16:15.959Z,0.00
2018-09-02T00:17:15.989Z,0.00
2018-09-02T00:18:16.014Z,0.00
2018-09-02T00:19:16.042Z,0.00
2018-09-02T00:20:16.073Z,0.00
2018-09-02T00:21:16.098Z,0.00
2018-09-02T00:22:16.127Z,0.00
2018-09-02T00:23:16.157Z,0.00
2018-09-02T00:24:16.187Z,0.00
2018-09-02T00:25:16.214Z,0.00
2018-09-02T00:26:16.241Z,0.00
2018-09-02T00:27:16.268Z,0.00
2018-09-02T00:28:16.299Z,0.00
2018-09-02T00:29:16.324Z,0.00
2018-09-02T00:30:16.371Z,0.00
2018-09-02T00:31:16.382Z,0.00
2018-09-02T00:32:16.409Z,0.00
2018-09-02T00:33:16.541Z,0.00
2018-09-02T00:34:16.465Z,0.00
2018-09-02T00:35:16.497Z,0.00
2018-09-02T00:36:16.525Z,0.00
2018-09-02T00:37:16.552Z,0.00
2018-09-02T00:38:16.580Z,0.00
2018-09-02T00:39:16.607Z,0.00
2018-09-02T00:40:16.634Z,0.00
2018-09-02T00:41:16.662Z,0.00
2018-09-02T00:42:16.690Z,0.00
2018-09-02T00:43:16.719Z,0.00
2018-09-02T00:44:16.750Z,0.00
2018-09-02T00:45:16.777Z,0.00
2018-09-02T00:46:16.805Z,0.00
2018-09-02T00:47:16.835Z,0.00
2018-09-02T00:48:16.861Z,0.00
2018-09-02T00:49:16.889Z,0.00
2018-09-02T00:50:16.917Z,0.00
2018-09-02T00:51:16.943Z,0.00
2018-09-02T00:52:16.972Z,0.00
2018-09-02T00:53:17.001Z,0.00
2018-09-02T00:54:17.027Z,0.00
2018-09-02T00:55:17.055Z,0.00
2018-09-02T00:56:17.084Z,0.00
2018-09-02T00:57:17.111Z,0.00
2018-09-02T00:58:17.139Z,0.00
2018-09-02T00:59:17.171Z,0.00
2018-09-02T01:00:17.195Z,0.00
2018-09-02T01:01:17.225Z,0.00
2018-09-02T01:02:17.250Z,0.00
2018-09-02T01:03:17.280Z,0.00
2018-09-02T01:04:17.308Z,0.00
2018-09-02T01:05:17.337Z,0.00
2018-09-02T01:06:17.367Z,0.00
2018-09-02T01:07:17.396Z,0.00
2018-09-02T01:08:17.422Z,0.00
2018-09-02T01:09:17.452Z,0.00
2018-09-02T01:10:17.478Z,0.00
2018-09-02T01:11:17.506Z,0.00
2018-09-02T01:12:17.532Z,0.00
2018-09-02T01:13:17.561Z,0.00
2018-09-02T01:14:17.586Z,0.00
2018-09-02T01:15:17.618Z,0.00
2018-09-02T01:16:17.646Z,0.00
2018-09-02T01:17:17.677Z,0.00
2018-09-02T01:18:17.699Z,0.00
2018-09-02T01:19:17.730Z,0.00
2018-09-02T01:20:17.759Z,0.00
2018-09-02T01:21:17.786Z,0.00
2018-09-02T01:22:17.814Z,0.00
2018-09-02T01:23:17.841Z,0.00
2018-09-02T01:24:17.868Z,0.00
2018-09-02T01:25:17.897Z,0.00
2018-09-02T01:26:17.924Z,0.00
2018-09-02T01:27:17.954Z,0.00
2018-09-02T01:28:17.982Z,0.00
2018-09-02T01:29:18.008Z,0.00
2018-09-02T01:30:18.037Z,0.00
2018-09-02T01:31:18.063Z,0.00
2018-09-02T01:32:18.094Z,0.00
2018-09-02T01:33:18.120Z,0.00
2018-09-02T01:34:18.148Z,0.00
2018-09-02T01:35:18.177Z,0.00
2018-09-02T01:36:18.202Z,0.00
2018-09-02T01:37:18.230Z,0.00
2018-09-02T01:38:18.260Z,0.00
2018-09-02T01:39:18.293Z,0.00
2018-09-02T01:40:18.318Z,0.00
2018-09-02T01:41:18.344Z,0.00
2018-09-02T01:42:18.370Z,0.00
2018-09-02T01:43:18.398Z,0.00
2018-09-02T01:44:18.428Z,0.00
2018-09-02T01:45:18.455Z,0.00
2018-09-02T01:46:18.483Z,0.00
2018-09-02T01:47:18.512Z,0.00
2018-09-02T01:48:18.542Z,0.00
2018-09-02T01:49:18.567Z,0.00
2018-09-02T01:50:18.592Z,0.00
2018-09-02T01:51:18.622Z,0.00
2018-09-02T01:52:18.650Z,0.00
2018-09-02T01:53:18.677Z,0.00
2018-09-02T01:54:18.704Z,0.00
2018-09-02T01:55:18.735Z,0.00
2018-09-02T01:56:18.761Z,0.00
2018-09-02T01:57:18.790Z,0.00
2018-09-02T01:58:18.819Z,0.00
2018-09-02T01:59:18.846Z,0.00
2018-09-02T02:00:18.874Z,0.00
2018-09-02T02:01:18.902Z,0.00
2018-09-02T02:02:18.928Z,0.00
2018-09-02T02:03:18.955Z,0.00
2018-09-02T02:04:18.987Z,0.00
2018-09-02T02:05:19.016Z,0.00
2018-09-02T02:06:19.041Z,0.00
2018-09-02T02:07:19.072Z,0.00
2018-09-02T02:08:19.098Z,0.00
2018-09-02T02:09:19.123Z,0.00
2018-09-02T02:10:19.151Z,0.00
2018-09-02T02:11:19.178Z,0.00
2018-09-02T02:12:19.207Z,0.00
2018-09-02T02:13:19.235Z,0.00
2018-09-02T02:14:19.264Z,0.00
2018-09-02T02:15:19.294Z,0.00
2018-09-02T02:16:19.321Z,0.00
2018-09-02T02:17:19.345Z,0.00
2018-09-02T02:18:19.374Z,0.00
2018-09-02T02:19:19.402Z,0.00
2018-09-02T02:20:19.430Z,0.00
2018-09-02T02:21:19.459Z,0.00
2018-09-02T02:22:19.493Z,0.00
2018-09-02T02:23:19.514Z,0.00
2018-09-02T02:24:19.544Z,0.00
2018-09-02T02:25:19.572Z,0.00
2018-09-02T02:26:19.597Z,0.00
2018-09-02T02:27:19.626Z,0.00
2018-09-02T02:28:19.656Z,0.00
2018-09-02T02:29:19.681Z,0.00
2018-09-02T02:30:19.711Z,0.00
2018-09-02T02:31:19.737Z,0.00
2018-09-02T02:32:19.767Z,0.00
2018-09-02T02:33:19.798Z,0.00
2018-09-02T02:34:19.819Z,0.00
2018-09-02T02:35:19.851Z,0.00
2018-09-02T02:36:19.877Z,0.00
2018-09-02T02:37:19.905Z,0.00
2018-09-02T02:38:19.935Z,0.00
2018-09-02T02:39:19.959Z,0.00
2018-09-02T02:40:19.990Z,0.00
2018-09-02T02:41:20.021Z,0.00
2018-09-02T02:42:20.045Z,0.00
2018-09-02T02:43:20.071Z,0.00
2018-09-02T02:44:20.099Z,0.00
2018-09-02T02:45:20.126Z,0.00
2018-09-02T02:46:20.154Z,0.00
2018-09-02T02:47:20.182Z,0.00
2018-09-02T02:48:20.212Z,0.00
2018-09-02T02:49:20.237Z,0.00
2018-09-02T02:50:20.267Z,0.00
2018-09-02T02:51:20.293Z,0.00
2018-09-02T02:52:20.322Z,0.00
2018-09-02T02:53:20.349Z,0.00
2018-09-02T02:54:20.379Z,0.00
2018-09-02T02:55:20.410Z,0.00
2018-09-02T02:56:20.435Z,0.00
2018-09-02T02:57:20.510Z,0.00
2018-09-02T02:58:20.493Z,0.00
2018-09-02T02:59:20.515Z,0.00
2018-09-02T03:00:20.547Z,0.00
2018-09-02T03:01:20.574Z,0.00
2018-09-02T03:02:20.601Z,0.00
2018-09-02T03:03:20.628Z,0.00
2018-09-02T03:04:20.658Z,0.00
2018-09-02T03:05:20.682Z,0.00
2018-09-02T03:06:20.715Z,0.00
2018-09-02T03:07:20.737Z,0.00
2018-09-02T03:08:20.768Z,0.00
2018-09-02T03:09:20.795Z,0.00
2018-09-02T03:10:20.828Z,0.00
2018-09-02T03:11:20.857Z,0.00
2018-09-02T03:12:20.880Z,0.00
2018-09-02T03:13:20.905Z,0.00
2018-09-02T03:14:20.934Z,0.00
2018-09-02T03:15:20.961Z,0.00
2018-09-02T03:16:20.990Z,0.00
2018-09-02T03:17:21.018Z,0.00
2018-09-02T03:18:21.047Z,0.00
2018-09-02T03:19:21.077Z,0.00
2018-09-02T03:20:21.104Z,0.00
2018-09-02T03:21:21.129Z,0.00
2018-09-02T03:22:21.155Z,0.00
2018-09-02T03:23:21.183Z,0.00
2018-09-02T03:24:21.212Z,0.00
2018-09-02T03:25:21.241Z,0.00
2018-09-02T03:26:21.267Z,0.00
2018-09-02T03:27:21.297Z,0.00
2018-09-02T03:28:21.325Z,0.00
2018-09-02T03:29:21.351Z,0.00
2018-09-02T03:30:21.378Z,0.00
2018-09-02T03:31:21.412Z,0.00
2018-09-02T03:32:21.435Z,0.00
2018-09-02T03:33:21.466Z,0.00
2018-09-02T03:34:21.489Z,0.00
2018-09-02T03:35:21.519Z,0.00
2018-09-02T03:36:21.547Z,0.00
2018-09-02T03:37:21.574Z,0.00
2018-09-02T03:38:21.602Z,0.00
2018-09-02T03:39:21.630Z,0.00
2018-09-02T03:40:21.656Z,0.00
2018-09-02T03:41:21.685Z,0.00
2018-09-02T03:42:21.714Z,0.00
2018-09-02T03:43:21.742Z,0.00
2018-09-02T03:44:21.771Z,0.00
2018-09-02T03:45:21.796Z,0.00
2018-09-02T03:46:21.825Z,0.00
2018-09-02T03:47:21.850Z,0.00
2018-09-02T03:48:21.878Z,0.00
2018-09-02T03:49:21.908Z,0.00
2018-09-02T03:50:21.935Z,0.00
2018-09-02T03:51:21.966Z,0.00
2018-09-02T03:52:21.994Z,0.00
2018-09-02T03:53:22.019Z,0.00
2018-09-02T03:54:22.047Z,0.00
2018-09-02T03:55:22.075Z,0.00
2018-09-02T03:56:22.107Z,0.00
2018-09-02T03:57:22.128Z,0.00
2018-09-02T03:58:22.158Z,0.00
2018-09-02T03:59:22.186Z,0.00
2018-09-02T04:00:22.212Z,0.00
2018-09-02T04:01:22.242Z,0.00
2018-09-02T04:02:22.278Z,0.00
2018-09-02T04:03:22.294Z,0.00
2018-09-02T04:04:22.326Z,0.00
2018-09-02T04:05:22.350Z,0.00
2018-09-02T04:06:22.381Z,0.00
2018-09-02T04:07:22.410Z,0.00
2018-09-02T04:08:22.437Z,0.00
2018-09-02T04:09:22.465Z,0.00
2018-09-02T04:10:22.511Z,0.00
2018-09-02T04:11:22.559Z,0.00
2018-09-02T04:12:22.549Z,0.00
2018-09-02T04:13:22.574Z,0.00
2018-09-02T04:14:22.604Z,0.00
2018-09-02T04:15:22.630Z,0.00
2018-09-02T04:16:22.659Z,0.00
2018-09-02T04:17:22.688Z,0.00
2018-09-02T04:18:22.716Z,0.00
2018-09-02T04:19:22.742Z,0.00
2018-09-02T04:20:22.772Z,0.00
2018-09-02T04:21:22.799Z,0.00
2018-09-02T04:22:22.827Z,0.00
2018-09-02T04:23:22.852Z,0.00
2018-09-02T04:24:22.884Z,0.00
2018-09-02T04:25:22.909Z,0.00
2018-09-02T04:26:22.937Z,0.00
2018-09-02T04:27:22.968Z,0.00
2018-09-02T04:28:22.994Z,0.00
2018-09-02T04:29:23.021Z,0.00
2018-09-02T04:30:23.051Z,0.00
2018-09-02T04:31:23.079Z,0.00
2018-09-02T04:32:23.108Z,0.00
2018-09-02T04:33:23.135Z,0.00
2018-09-02T04:34:23.167Z,0.00
2018-09-02T04:35:23.189Z,0.00
2018-09-02T04:36:23.298Z,0.00
2018-09-02T04:37:23.246Z,0.00
2018-09-02T04:38:23.271Z,0.00
2018-09-02T04:39:23.299Z,0.00
2018-09-02T04:40:23.332Z,0.00
2018-09-02T04:41:23.357Z,0.00
2018-09-02T04:42:23.382Z,5.63
2018-09-02T04:43:23.410Z,5.63
2018-09-02T04:44:23.440Z,5.63
2018-09-02T04:45:23.608Z,5.63
2018-09-02T04:46:23.497Z,5.63
2018-09-02T04:47:23.527Z,5.63
2018-09-02T04:48:23.551Z,5.63
2018-09-02T04:49:23.578Z,11.25
2018-09-02T04:50:23.606Z,11.25
2018-09-02T04:51:23.634Z,11.25
2018-09-02T04:52:23.664Z,11.25
2018-09-02T04:53:23.689Z,11.25
2018-09-02T04:54:23.873Z,11.25
2018-09-02T04:55:23.748Z,16.88
2018-09-02T04:56:23.772Z,16.88
2018-09-02T04:57:23.807Z,16.88
2018-09-02T04:58:23.828Z,16.88
2018-09-02T04:59:23.859Z,22.50
2018-09-02T05:00:23.928Z,22.50
2018-09-02T05:01:23.914Z,22.50
2018-09-02T05:02:23.940Z,22.50
2018-09-02T05:03:23.971Z,28.13
2018-09-02T05:04:23.996Z,28.13
2018-09-02T05:05:24.023Z,28.13
2018-09-02T05:06:24.051Z,28.13
2018-09-02T05:07:24.080Z,33.75
2018-09-02T05:08:24.107Z,33.75
2018-09-02T05:09:24.137Z,33.75
2018-09-02T05:10:24.168Z,33.75
2018-09-02T05:11:24.196Z,33.75
2018-09-02T05:12:24.221Z,39.38
2018-09-02T05:13:24.245Z,39.38
2018-09-02T05:14:24.275Z,39.38
2018-09-02T05:15:24.304Z,45.00
2018-09-02T05:16:24.329Z,45.00
2018-09-02T05:17:24.359Z,45.00
2018-09-02T05:18:24.389Z,45.00
2018-09-02T05:19:24.413Z,50.63
2018-09-02T05:20:24.441Z,50.63
2018-09-02T05:21:24.468Z,50.63
2018-09-02T05:22:24.498Z,50.63
2018-09-02T05:23:24.525Z,56.25
2018-09-02T05:24:24.552Z,56.25
2018-09-02T05:25:24.579Z,56.25
2018-09-02T05:26:24.610Z,61.88
2018-09-02T05:27:24.635Z,61.88
2018-09-02T05:28:24.666Z,61.88
2018-09-02T05:29:24.693Z,67.50
2018-09-02T05:30:24.721Z,67.50
2018-09-02T05:31:24.747Z,67.50
2018-09-02T05:32:24.778Z,73.13
2018-09-02T05:33:24.803Z,73.13
2018-09-02T05:34:24.829Z,78.75
2018-09-02T05:35:24.860Z,78.75
2018-09-02T05:36:24.889Z,78.75
2018-09-02T05:37:24.913Z,84.38
2018-09-02T05:38:24.940Z,84.38
2018-09-02T05:39:24.969Z,84.38
2018-09-02T05:40:25.000Z,84.38
2018-09-02T05:41:25.026Z,90.00
2018-09-02T05:42:25.053Z,90.00
2018-09-02T05:43:25.083Z,90.00
2018-09-02T05:44:25.111Z,90.00
2018-09-02T05:45:25.138Z,95.63
2018-09-02T05:46:25.167Z,95.63
2018-09-02T05:47:25.201Z,95.63
2018-09-02T05:48:25.219Z,95.63
2018-09-02T05:49:25.248Z,101.25
2018-09-02T05:50:25.280Z,101.25
2018-09-02T05:51:25.306Z,101.25
2018-09-02T05:52:25.332Z,101.25
2018-09-02T05:53:25.363Z,101.25
2018-09-02T05:54:25.407Z,106.88
2018-09-02T05:55:25.416Z,106.88
2018-09-02T05:56:25.446Z,112.50
2018-09-02T05:57:25.482Z,112.50
2018-09-02T05:58:25.502Z,118.13
2018-09-02T05:59:25.529Z,118.13
2018-09-02T06:00:25.557Z,123.75
2018-09-02T06:01:25.582Z,123.75
2018-09-02T06:02:25.613Z,123.75
2018-09-02T06:03:25.638Z,123.75
2018-09-02T06:04:25.667Z,129.38
2018-09-02T06:05:25.696Z,129.38
2018-09-02T06:06:25.724Z,129.38
2018-09-02T06:07:25.753Z,135.00
2018-09-02T06:08:25.778Z,135.00
2018-09-02T06:09:25.810Z,135.00
2018-09-02T06:10:25.834Z,135.00
2018-09-02T06:11:25.865Z,140.63
2018-09-02T06:12:25.892Z,140.63
2018-09-02T06:13:25.923Z,140.63
2018-09-02T06:14:25.946Z,146.25
2018-09-02T06:15:25.974Z,146.25
2018-09-02T06:16:26.003Z,146.25
2018-09-02T06:17:26.173Z,146.25
2018-09-02T06:18:26.061Z,151.88
2018-09-02T06:19:26.090Z,151.88
2018-09-02T06:20:26.116Z,157.50
2018-09-02T06:21:26.145Z,157.50
2018-09-02T06:22:26.171Z,163.13
2018-09-02T06:23:26.204Z,191.25
2018-09-02T06:24:26.226Z,360.00
2018-09-02T06:25:26.258Z,562.50
2018-09-02T06:26:26.284Z,618.75
2018-09-02T06:27:26.313Z,601.88
2018-09-02T06:28:26.343Z,556.88
2018-09-02T06:29:26.370Z,579.38
2018-09-02T06:30:26.419Z,613.13
2018-09-02T06:31:26.427Z,658.13
2018-09-02T06:32:26.457Z,646.88
2018-09-02T06:33:26.486Z,658.13
2018-09-02T06:34:26.512Z,708.75
2018-09-02T06:35:26.559Z,765.00
2018-09-02T06:36:26.569Z,883.13
2018-09-02T06:38:57.269Z,967.50
2018-09-02T06:39:54.286Z,933.75
2018-09-02T06:40:54.318Z,731.25
2018-09-02T06:41:54.346Z,624.38
2018-09-02T06:42:54.380Z,585.00
2018-09-02T06:43:54.408Z,573.75
2018-09-02T06:44:54.435Z,545.63
2018-09-02T06:45:54.466Z,523.13
2018-09-02T06:46:54.500Z,506.25
2018-09-02T06:47:54.527Z,500.63
2018-09-02T06:48:54.558Z,500.63
2018-09-02T06:49:54.592Z,500.63
2018-09-02T06:50:54.622Z,506.25
2018-09-02T06:51:54.656Z,511.88
2018-09-02T06:52:54.685Z,517.50
2018-09-02T06:53:54.716Z,511.88
2018-09-02T06:54:54.745Z,506.25
2018-09-02T06:55:54.776Z,511.88
2018-09-02T06:56:54.810Z,511.88
2018-09-02T06:57:54.840Z,517.50
2018-09-02T06:58:54.875Z,523.13
2018-09-02T06:59:54.906Z,523.13
2018-09-02T07:00:54.941Z,523.13
2018-09-02T07:01:54.969Z,528.75
2018-09-02T07:02:55.001Z,534.38
2018-09-02T07:03:55.037Z,540.00
2018-09-02T07:04:55.066Z,534.38
2018-09-02T07:05:55.147Z,540.00
2018-09-02T07:06:55.134Z,551.25
2018-09-02T07:07:55.166Z,562.50
2018-09-02T07:08:55.199Z,573.75
2018-09-02T07:09:55.233Z,596.25
2018-09-02T07:10:55.264Z,759.38
2018-09-02T07:11:55.299Z,1057.50
2018-09-02T07:12:55.328Z,1248.75
2018-09-02T07:13:55.365Z,1299.38
2018-09-02T07:14:55.398Z,1316.25
2018-09-02T07:15:55.430Z,1395.00
2018-09-02T07:16:55.466Z,1423.13
2018-09-02T07:17:55.899Z,1428.75
2018-09-02T07:18:56.135Z,1406.25
2018-09-02T07:19:55.618Z,1344.38
2018-09-02T07:20:55.597Z,1378.13
2018-09-02T07:21:55.635Z,1440.00
2018-09-02T07:22:55.664Z,1445.63
2018-09-02T07:23:55.699Z,1490.63
2018-09-02T07:24:55.735Z,1546.88
2018-09-02T07:25:55.766Z,1535.63
2018-09-02T07:26:55.802Z,1513.13
2018-09-02T07:27:55.834Z,1518.75
2018-09-02T07:28:55.874Z,1546.88
2018-09-02T07:29:55.903Z,1546.88
2018-09-02T07:30:55.937Z,1569.38
2018-09-02T07:31:55.971Z,1597.50
2018-09-02T07:32:56.010Z,1597.50
2018-09-02T07:33:56.041Z,1597.50
2018-09-02T07:34:56.078Z,1591.88
2018-09-02T07:35:56.109Z,1603.13
2018-09-02T07:36:56.145Z,1653.75
2018-09-02T07:37:56.180Z,1631.25
2018-09-02T07:38:56.220Z,1614.38
2018-09-02T07:39:56.252Z,1653.75
2018-09-02T07:40:56.285Z,1670.63
2018-09-02T07:42:56.358Z,1642.50
2018-09-02T07:43:56.424Z,1659.38
2018-09-02T07:44:56.428Z,1681.88
2018-09-02T07:45:56.470Z,1648.13
2018-09-02T07:46:56.498Z,1620.00
2018-09-02T07:47:56.532Z,1625.63
2018-09-02T07:48:59.194Z,1636.88
2018-09-02T07:49:56.604Z,1693.13
2018-09-02T07:51:56.678Z,1676.25
2018-09-02T07:52:56.714Z,1603.13
2018-09-02T07:53:56.751Z,1558.13
2018-09-02T07:54:56.787Z,1603.13
2018-09-02T07:55:56.822Z,1625.63
2018-09-02T07:56:56.859Z,1681.88
2018-09-02T07:57:56.897Z,1738.13
2018-09-02T07:58:56.929Z,1715.63
2018-09-02T07:59:56.969Z,1687.50
2018-09-02T08:00:57.004Z,1693.13
2018-09-02T08:01:57.040Z,1698.75
2018-09-02T08:02:57.074Z,1783.13
2018-09-02T08:03:57.113Z,1794.38
2018-09-02T08:04:57.148Z,1738.13
2018-09-02T08:05:57.187Z,1783.13
2018-09-02T08:06:57.221Z,1788.75
2018-09-02T08:07:57.259Z,1811.25
2018-09-02T08:08:57.296Z,1828.13
2018-09-02T08:09:57.331Z,1800.00
2018-09-02T08:10:57.368Z,1777.50
2018-09-02T08:11:57.407Z,1811.25
2018-09-02T08:12:57.646Z,1777.50
2018-09-02T08:13:57.509Z,1732.50
2018-09-02T08:14:57.518Z,1766.25
2018-09-02T08:16:57.599Z,1749.38
2018-09-02T08:17:57.630Z,1755.00
2018-09-02T08:18:57.669Z,1794.38
2018-09-02T08:20:57.744Z,1828.13
2018-09-02T08:21:57.783Z,1856.25
2018-09-02T08:22:57.819Z,1901.25
2018-09-02T08:23:57.854Z,1890.00
2018-09-02T08:24:57.890Z,1878.75
2018-09-02T08:25:57.928Z,1822.50
2018-09-02T08:26:57.967Z,1867.50
2018-09-02T08:27:58.006Z,1918.13
2018-09-02T08:28:58.053Z,1845.00
2018-09-02T08:29:58.081Z,1861.88
2018-09-02T08:30:58.117Z,1873.13
2018-09-02T08:31:58.159Z,1845.00
2018-09-02T08:32:58.247Z,1901.25
2018-09-02T08:33:58.229Z,1906.88
2018-09-02T08:34:58.271Z,1912.50
2018-09-02T08:35:58.309Z,1946.25
2018-09-02T08:36:58.347Z,1963.13
2018-09-02T08:37:58.384Z,1963.13
2018-09-02T08:38:58.427Z,1935.00
2018-09-02T08:39:58.459Z,1946.25
2018-09-02T08:40:58.498Z,1968.75
2018-09-02T08:41:58.539Z,1901.25
2018-09-02T08:42:58.575Z,1929.38
2018-09-02T08:43:58.632Z,1968.75
2018-09-02T08:44:58.651Z,1974.38
2018-09-02T08:45:58.690Z,1980.00
2018-09-02T08:46:58.734Z,1963.13
2018-09-02T08:47:58.766Z,1951.88
2018-09-02T08:48:58.805Z,1974.38
2018-09-02T08:49:58.844Z,2002.50
2018-09-02T08:50:58.885Z,2025.00
2018-09-02T08:51:58.919Z,2041.88
2018-09-02T08:52:58.960Z,2019.38
2018-09-02T08:53:59.001Z,2002.50
2018-09-02T08:54:59.040Z,1985.63
2018-09-02T08:55:59.111Z,1974.38
2018-09-02T08:56:59.118Z,2002.50
2018-09-02T08:57:59.154Z,2064.38
2018-09-02T08:58:59.196Z,2098.13
2018-09-02T08:59:59.233Z,2137.50
2018-09-02T09:00:59.269Z,2098.13
2018-09-02T09:01:59.312Z,2086.88
2018-09-02T09:02:59.395Z,2148.75
2018-09-02T09:03:59.387Z,2137.50
2018-09-02T09:04:59.428Z,2165.63
2018-09-02T09:05:59.476Z,2188.13
2018-09-02T09:06:59.509Z,2227.50
2018-09-02T09:07:59.609Z,2205.00
2018-09-02T09:08:59.760Z,2188.13
2018-09-02T09:09:59.622Z,2233.13
2018-09-02T09:10:59.664Z,2250.00
2018-09-02T09:11:59.700Z,2266.88
2018-09-02T09:12:59.742Z,2261.25
2018-09-02T09:13:59.850Z,2221.88
2018-09-02T09:14:59.822Z,2199.38
2018-09-02T09:15:59.857Z,2199.38
2018-09-02T09:16:59.956Z,2250.00
2018-09-02T09:17:59.939Z,2283.75
2018-09-02T09:18:59.978Z,2261.25
2018-09-02T09:20:00.017Z,2306.25
2018-09-02T09:21:00.054Z,2328.75
2018-09-02T09:22:00.097Z,2323.13
2018-09-02T09:23:00.137Z,2323.13
2018-09-02T09:24:00.198Z,2396.25
2018-09-02T09:25:00.872Z,2385.00
2018-09-02T09:26:00.254Z,2340.00
2018-09-02T09:27:00.294Z,2345.63
2018-09-02T09:28:00.331Z,2323.13
2018-09-02T09:29:00.373Z,2362.50
2018-09-02T09:30:00.414Z,2334.38
2018-09-02T09:31:00.451Z,2340.00
2018-09-02T09:32:00.491Z,2283.75
2018-09-02T09:33:00.529Z,2266.88
2018-09-02T09:34:00.570Z,2289.38
2018-09-02T09:35:00.608Z,2221.88
2018-09-02T09:36:00.650Z,2266.88
2018-09-02T09:37:00.690Z,2317.50
2018-09-02T09:38:00.728Z,2334.38
2018-09-02T09:39:00.767Z,2328.75
2018-09-02T09:40:00.812Z,2266.88
2018-09-02T09:41:00.852Z,2345.63
2018-09-02T09:42:00.890Z,2345.63
2018-09-02T09:43:00.929Z,2311.88
2018-09-02T09:44:00.968Z,2334.38
2018-09-02T09:45:01.008Z,2272.50
2018-09-02T09:46:01.125Z,2311.88
2018-09-02T09:47:01.086Z,2345.63
2018-09-02T09:48:01.126Z,2356.88
2018-09-02T09:49:01.164Z,2311.88
2018-09-02T09:50:01.209Z,2272.50
2018-09-02T09:51:01.245Z,2345.63
2018-09-02T09:52:01.289Z,2323.13
2018-09-02T09:53:01.329Z,2368.13
2018-09-02T09:54:01.366Z,2311.88
2018-09-02T09:55:01.406Z,2317.50
2018-09-02T09:56:01.445Z,2328.75
2018-09-02T09:57:01.482Z,2300.63
2018-09-02T09:58:01.526Z,2255.63
2018-09-02T09:59:01.574Z,2227.50
2018-09-02T10:00:01.603Z,2306.25
2018-09-02T10:01:01.640Z,2300.63
2018-09-02T10:02:01.684Z,2261.25
2018-09-02T10:03:01.722Z,2238.75
2018-09-02T10:04:01.761Z,2216.25
2018-09-02T10:05:01.801Z,2238.75
2018-09-02T10:06:01.843Z,2193.75
2018-09-02T10:07:01.882Z,2160.00
2018-09-02T10:08:01.920Z,2126.25
2018-09-02T10:09:01.962Z,2210.63
2018-09-02T10:10:02.004Z,2205.00
2018-09-02T10:11:02.043Z,2148.75
2018-09-02T10:12:02.082Z,2205.00
2018-09-02T10:13:02.117Z,2289.38
2018-09-02T10:14:02.164Z,2250.00
2018-09-02T10:15:02.198Z,2289.38
2018-09-02T10:16:02.239Z,2390.63
2018-09-02T10:17:02.281Z,2396.25
2018-09-02T10:18:02.380Z,2340.00
2018-09-02T10:19:02.358Z,2328.75
2018-09-02T10:20:02.399Z,2340.00
2018-09-02T10:21:02.437Z,2345.63
2018-09-02T10:22:02.478Z,2356.88
2018-09-02T10:23:02.520Z,2289.38
2018-09-02T10:24:02.556Z,2255.63
2018-09-02T10:25:02.598Z,2340.00
2018-09-02T10:26:02.636Z,2334.38
2018-09-02T10:27:02.677Z,2334.38
2018-09-02T10:28:02.718Z,2328.75
2018-09-02T10:29:02.755Z,2266.88
2018-09-02T10:30:02.797Z,2323.13
2018-09-02T10:31:02.834Z,2283.75
2018-09-02T10:32:02.876Z,2210.63
2018-09-02T10:33:02.914Z,2199.38
2018-09-02T10:34:02.953Z,2250.00
2018-09-02T10:35:02.994Z,2193.75
2018-09-02T10:36:03.032Z,2210.63
2018-09-02T10:37:03.075Z,2250.00
2018-09-02T10:38:03.115Z,2216.25
2018-09-02T10:39:03.154Z,2250.00
2018-09-02T10:40:03.194Z,2300.63
2018-09-02T10:41:03.306Z,2278.13
2018-09-02T10:42:03.276Z,2300.63
2018-09-02T10:43:03.311Z,2295.00
2018-09-02T10:44:03.353Z,2266.88
2018-09-02T10:45:03.392Z,2266.88
2018-09-02T10:46:03.434Z,2120.63
2018-09-02T10:47:03.471Z,2064.38
2018-09-02T10:48:03.512Z,2047.50
2018-09-02T10:49:03.554Z,1974.38
2018-09-02T10:50:03.593Z,2047.50
2018-09-02T10:51:03.635Z,2126.25
2018-09-02T10:52:03.674Z,1665.00
2018-09-02T10:53:03.712Z,2205.00
2018-09-02T10:54:03.756Z,2266.88
2018-09-02T10:55:03.796Z,2255.63
2018-09-02T10:56:03.839Z,2210.63
2018-09-02T10:57:03.875Z,2233.13
2018-09-02T10:58:03.918Z,2143.13
2018-09-02T11:00:31.630Z,2092.50
2018-09-02T11:01:31.670Z,2120.63
2018-09-02T11:02:31.715Z,2131.88
2018-09-02T11:03:31.750Z,2143.13
2018-09-02T11:05:19.368Z,2165.63
2018-09-02T11:06:19.407Z,2216.25
2018-09-02T11:07:19.448Z,2188.13
2018-09-02T11:08:19.484Z,2109.38
2018-09-02T11:09:19.528Z,911.25
2018-09-02T11:10:19.568Z,2160.00
2018-09-02T11:11:19.605Z,2148.75
2018-09-02T11:12:19.645Z,2154.38
2018-09-02T11:13:19.761Z,2126.25
2018-09-02T11:14:19.725Z,2103.75
2018-09-02T11:15:19.766Z,2171.25
2018-09-02T11:16:19.811Z,2199.38
2018-09-02T11:17:19.848Z,1085.63
2018-09-02T11:18:19.889Z,624.38
2018-09-02T11:19:19.929Z,2176.88
2018-09-02T11:20:19.967Z,2120.63
2018-09-02T11:21:20.005Z,2053.13
2018-09-02T11:22:20.044Z,2036.25
2018-09-02T11:23:20.086Z,2075.63
2018-09-02T11:24:20.123Z,2075.63
2018-09-02T11:25:20.167Z,2109.38
2018-09-02T11:26:20.207Z,2070.00
2018-09-02T11:27:20.247Z,2064.38
2018-09-02T11:28:20.284Z,2053.13
2018-09-02T11:29:20.323Z,2036.25
2018-09-02T11:30:20.366Z,2030.63
2018-09-02T11:31:20.403Z,2030.63
2018-09-02T11:32:20.444Z,1968.75
2018-09-02T11:33:20.485Z,1996.88
2018-09-02T11:34:20.526Z,1996.88
2018-09-02T11:35:20.565Z,1873.13
2018-09-02T11:36:20.605Z,1912.50
2018-09-02T11:37:20.643Z,1996.88
2018-09-02T11:38:20.686Z,1946.25
2018-09-02T11:39:20.723Z,1884.38
2018-09-02T11:40:20.764Z,1873.13
2018-09-02T11:41:20.805Z,1957.50
2018-09-02T11:42:20.843Z,1929.38
2018-09-02T11:43:20.886Z,1996.88
2018-09-02T11:44:20.922Z,1963.13
2018-09-02T11:45:20.963Z,1890.00
2018-09-02T11:46:21.003Z,1873.13
2018-09-02T11:47:21.044Z,1878.75
2018-09-02T11:48:21.088Z,1861.88
2018-09-02T11:49:21.122Z,1839.38
2018-09-02T11:50:21.165Z,1833.75
2018-09-02T11:51:21.203Z,1766.25
2018-09-02T11:52:21.242Z,1839.38
2018-09-02T11:53:21.284Z,1861.88
2018-09-02T11:54:21.322Z,1890.00
2018-09-02T11:55:21.365Z,1861.88
2018-09-02T11:56:21.401Z,1861.88
2018-09-02T11:57:21.443Z,1816.88
2018-09-02T11:58:21.482Z,1816.88
2018-09-02T11:59:21.523Z,1833.75
2018-09-02T12:00:21.561Z,1822.50
2018-09-02T12:01:21.606Z,1816.88
2018-09-02T12:02:21.641Z,1738.13
2018-09-02T12:03:21.681Z,1012.50
2018-09-02T12:04:21.721Z,1749.38
2018-09-02T12:05:21.763Z,1749.38
2018-09-02T12:06:21.804Z,1788.75
2018-09-02T12:07:21.842Z,1777.50
2018-09-02T12:08:21.883Z,1721.25
2018-09-02T12:09:21.920Z,1687.50
2018-09-02T12:10:21.963Z,1726.88
2018-09-02T12:11:22.000Z,1715.63
2018-09-02T12:12:22.040Z,1721.25
2018-09-02T12:13:22.080Z,1771.88
2018-09-02T12:14:22.273Z,1828.13
2018-09-02T12:15:22.160Z,1867.50
2018-09-02T12:16:22.202Z,1833.75
2018-09-02T12:17:22.242Z,1811.25
2018-09-02T12:18:22.283Z,1771.88
2018-09-02T12:19:22.322Z,1726.88
2018-09-02T12:20:22.362Z,1749.38
2018-09-02T12:21:22.402Z,1766.25
2018-09-02T12:22:22.443Z,1816.88
2018-09-02T12:23:22.479Z,1878.75
2018-09-02T12:24:22.522Z,1906.88
2018-09-02T12:25:22.562Z,2058.75
2018-09-02T12:26:22.604Z,2553.75
2018-09-02T12:27:22.639Z,4010.63
2018-09-02T12:28:22.686Z,5068.13
2018-09-02T12:29:22.720Z,3521.25
2018-09-02T12:30:22.761Z,956.25
2018-09-02T12:31:22.810Z,675.00
2018-09-02T12:32:22.841Z,613.13
2018-09-02T12:33:22.881Z,556.88
2018-09-02T12:34:22.919Z,528.75
2018-09-02T12:35:22.959Z,511.88
2018-09-02T12:36:23.000Z,511.88
2018-09-02T12:37:23.042Z,506.25
2018-09-02T12:38:23.078Z,500.63
2018-09-02T12:39:23.117Z,489.38
2018-09-02T12:40:23.163Z,489.38
2018-09-02T12:41:23.198Z,483.75
2018-09-02T12:42:23.298Z,478.13
2018-09-02T12:43:23.279Z,472.50
2018-09-02T12:44:23.320Z,466.88
2018-09-02T12:45:23.359Z,466.88
2018-09-02T12:46:23.398Z,461.25